Eaton, Indiana
Current Conditions -  °F | °C
As of 4:53 AM on Friday 31 Oct 2014 (Local Time) from KMIE Reporting Station
Few Clouds Few Clouds  
Wind Chill: 40°   Ceiling: Unl
Heat Index: 43°   Visibility: 10mi
Dew Point: 36°   Wind: 5mph
Humidity: 76%   Direction: 220°SW
Pressure: 29.98"   Gusts: NA
Location:  40.34°N, 85.35°W
Report Text: KMIE 310853Z AUTO 22004KT 10SM FEW070 06/02 A2998 RMK AO2 SLP151 T00610022 58013
Loading
Personal Weather Stations






























Interactive Weather Map
Tropical Storm Tracking
New forecast layout! Learn more

10-Day Weather Forecast

Advertisements
Track Severe Weather on mobile